YABA

Albany Airport (Australia)

Airport
ICAO code
YABA
IATA Code
ALH
Summary
ICAO Region
APAC
ICAO Territory
Location

Drome, Western Australia

Serving
Albany
Elevation
233 ft
Coordinates
34° 56' 36" S , 117° 48' 32" E
Metar
Observation
YABA 292032Z AUTO 04004KT 0150 // BKN013 09/09 Q1025
Station
Albany Aerodrome
Date/Time
2022-09-29 20:32:00
Wind direction
40°
Wind speed
04 kts
Lowest cloud amount
broken clouds
Temperature
9°C
Dew point
9°C
Humidity
100%
QNH
1025 hPa
Weather condition
n/a

Airport map

Aerial View

SKYbrary Partners:

Safety knowledge contributed by: